Time;durP1;ratioP1;P1;durP2;ratioP2;P2;SDS_P1;SDS_P2;PMS_P1;PMS_P2;Temp;Humidity;BMP_temperature;BMP_pressure;BME280_temperature;BME280_humidity;BME280_pressure;Samples;Min_cycle;Max_cycle;Signal;HPM_P1;HPM_P2
2023/03/13 00:01:54;;;;;;;22.98;3.65;;;11.90;99.90;;;;;;5010874;28;20128;-62
2023/03/13 00:04:21;;;;;;;18.75;6.15;;;11.90;99.90;;;;;;4999912;28;20053;-62
2023/03/13 00:06:48;;;;;;;16.65;4.85;;;11.90;99.90;;;;;;5009624;28;20042;-60
2023/03/13 00:09:15;;;;;;;17.10;4.03;;;11.90;99.90;;;;;;5017544;28;20041;-61
2023/03/13 00:11:43;;;;;;;18.63;4.82;;;11.90;99.90;;;;;;5019349;28;20041;-61
2023/03/13 00:14:09;;;;;;;18.73;3.90;;;11.90;99.90;;;;;;5017409;28;20046;-60
2023/03/13 00:16:38;;;;;;;20.90;4.85;;;12.00;99.90;;;;;;5006670;28;20046;-61
2023/03/13 00:19:06;;;;;;;27.73;6.05;;;12.00;99.90;;;;;;5012354;28;20060;-60
2023/03/13 00:21:33;;;;;;;28.73;6.05;;;12.00;99.90;;;;;;5008126;28;20041;-61
2023/03/13 00:24:00;;;;;;;25.85;4.30;;;12.00;99.90;;;;;;5016985;28;20060;-60
2023/03/13 00:26:27;;;;;;;25.45;6.18;;;12.10;99.90;;;;;;5000846;28;20085;-61
2023/03/13 00:28:53;;;;;;;24.10;5.40;;;12.10;99.90;;;;;;5020676;28;20113;-60
2023/03/13 00:31:25;;;;;;;25.02;6.07;;;12.10;99.90;;;;;;5013077;28;20572;-60
2023/03/13 00:33:53;;;;;;;26.58;5.03;;;12.10;99.90;;;;;;5018964;28;20411;-61
2023/03/13 00:36:22;;;;;;;21.80;5.90;;;12.10;99.90;;;;;;4999196;28;20128;-60
2023/03/13 00:38:49;;;;;;;33.22;7.40;;;12.20;99.90;;;;;;5018760;28;20046;-61
2023/03/13 00:41:20;;;;;;;27.30;5.57;;;12.20;99.90;;;;;;5018258;28;20058;-61
2023/03/13 00:43:47;;;;;;;40.20;6.90;;;12.10;99.90;;;;;;4999010;28;20037;-60
2023/03/13 00:46:15;;;;;;;31.45;4.85;;;12.10;99.90;;;;;;5019453;28;20058;-60
2023/03/13 00:48:42;;;;;;;34.15;6.70;;;12.10;99.90;;;;;;4997280;28;20046;-61
2023/03/13 00:51:09;;;;;;;37.47;6.13;;;12.10;99.90;;;;;;5004520;28;20045;-61
2023/03/13 00:53:36;;;;;;;29.85;5.97;;;12.10;99.90;;;;;;5013796;28;20052;-62
2023/03/13 00:56:07;;;;;;;31.75;5.15;;;12.10;99.90;;;;;;5022228;28;20107;-60
2023/03/13 00:58:35;;;;;;;24.50;4.65;;;12.10;99.90;;;;;;5015664;28;20381;-61
2023/03/13 01:01:22;;;;;;;25.45;5.65;;;12.10;99.90;;;;;;5020134;28;20488;-62
2023/03/13 01:03:54;;;;;;;30.55;5.05;;;12.00;99.90;;;;;;5010543;28;20049;-60
2023/03/13 01:06:23;;;;;;;21.60;4.63;;;12.10;99.90;;;;;;5023406;28;20052;-61
2023/03/13 01:08:49;;;;;;;31.88;5.63;;;12.10;99.90;;;;;;5009702;28;20052;-62
2023/03/13 01:11:18;;;;;;;26.65;5.22;;;12.10;99.90;;;;;;5022421;28;20046;-61
2023/03/13 01:13:45;;;;;;;26.70;5.15;;;12.10;99.90;;;;;;5026893;28;20049;-61
2023/03/13 01:16:14;;;;;;;20.52;4.78;;;12.10;99.90;;;;;;5023194;28;20129;-59
2023/03/13 01:18:43;;;;;;;23.42;4.50;;;12.10;99.90;;;;;;4986732;28;20123;-61
2023/03/13 01:21:10;;;;;;;23.98;4.80;;;12.10;99.90;;;;;;5023113;28;20042;-60
2023/03/13 01:23:36;;;;;;;24.05;4.47;;;12.10;99.90;;;;;;5010798;28;20058;-60
2023/03/13 01:26:04;;;;;;;28.58;5.95;;;12.10;99.90;;;;;;5000525;28;20608;-60
2023/03/13 01:28:31;;;;;;;21.63;5.00;;;12.10;99.90;;;;;;5020106;28;20054;-60
2023/03/13 01:30:58;;;;;;;16.98;3.97;;;12.00;99.90;;;;;;5021232;28;20051;-60
2023/03/13 01:33:25;;;;;;;13.23;3.83;;;12.00;99.90;;;;;;4996016;28;20093;-60
2023/03/13 01:35:59;;;;;;;14.85;4.32;;;11.90;99.90;;;;;;5018906;28;20538;-60
2023/03/13 01:38:26;;;;;;;22.00;4.55;;;11.90;99.90;;;;;;5013389;28;20064;-60
2023/03/13 01:40:52;;;;;;;16.52;3.45;;;11.90;99.90;;;;;;4666087;28;10000319;-60
2023/03/13 01:43:23;;;;;;;10.50;2.60;;;11.80;99.90;;;;;;5010417;28;20107;-60
2023/03/13 01:46:17;;;;;;;14.95;4.10;;;11.90;99.90;;;;;;5023308;28;20115;-60
2023/03/13 01:49:06;;;;;;;11.65;3.50;;;11.80;99.90;;;;;;5015464;28;20049;-61
2023/03/13 01:51:45;;;;;;;20.92;3.50;;;11.80;99.90;;;;;;5002742;28;20478;-60
2023/03/13 01:54:36;;;;;;;14.85;3.72;;;11.80;99.90;;;;;;4994988;28;20137;-60
2023/03/13 01:57:12;;;;;;;16.48;2.83;;;11.80;99.90;;;;;;5022637;28;20045;-60
2023/03/13 01:59:41;;;;;;;9.85;2.70;;;11.80;99.90;;;;;;4986233;28;20065;-61
2023/03/13 02:02:08;;;;;;;11.43;2.13;;;11.80;99.90;;;;;;4999810;28;20444;-59
2023/03/13 02:04:37;;;;;;;7.28;2.25;;;11.80;99.90;;;;;;5028011;28;20077;-60
2023/03/13 02:07:06;;;;;;;15.35;3.67;;;11.80;99.90;;;;;;4986736;28;20099;-60
2023/03/13 02:09:33;;;;;;;7.22;2.38;;;11.90;99.90;;;;;;5026791;28;20052;-60
2023/03/13 02:12:13;;;;;;;13.77;4.03;;;11.90;99.90;;;;;;5021770;28;20050;-60
2023/03/13 02:14:42;;;;;;;8.48;1.55;;;11.90;99.90;;;;;;5008922;28;20049;-60
2023/03/13 02:17:08;;;;;;;8.18;1.90;;;11.90;99.90;;;;;;5009630;28;20133;-60
2023/03/13 02:19:50;;;;;;;12.07;2.38;;;11.90;99.90;;;;;;5029752;28;20083;-60
2023/03/13 02:22:26;;;;;;;8.90;2.13;;;11.90;99.90;;;;;;5021975;28;20046;-62
2023/03/13 02:25:16;;;;;;;7.75;2.50;;;11.90;99.90;;;;;;5006961;28;20060;-61
2023/03/13 02:27:42;;;;;;;8.02;1.63;;;11.90;99.90;;;;;;5002186;28;20046;-60
2023/03/13 02:30:11;;;;;;;10.90;2.10;;;11.80;99.90;;;;;;5007971;28;20136;-59
2023/03/13 02:32:38;;;;;;;11.38;1.40;;;11.90;99.90;;;;;;5003993;28;20512;-59
2023/03/13 02:35:10;;;;;;;11.13;1.52;;;11.80;99.90;;;;;;4995600;28;20050;-59
2023/03/13 02:37:36;;;;;;;8.73;1.55;;;11.80;99.90;;;;;;5021951;28;20041;-59
2023/03/13 02:40:08;;;;;;;6.25;1.58;;;11.80;99.90;;;;;;5011945;28;20140;-59
2023/03/13 02:42:37;;;;;;;12.27;2.80;;;11.80;99.90;;;;;;5007255;28;20129;-60
2023/03/13 02:45:04;;;;;;;6.93;3.15;;;11.80;99.90;;;;;;5001209;28;20077;-60
2023/03/13 02:47:31;;;;;;;4.68;1.35;;;11.80;99.90;;;;;;5026052;28;20041;-60
2023/03/13 02:49:57;;;;;;;6.35;1.80;;;11.80;99.90;;;;;;5017914;28;20132;-61
2023/03/13 02:52:32;;;;;;;10.18;2.17;;;11.70;99.90;;;;;;5017743;28;20069;-60
2023/03/13 02:55:01;;;;;;;5.57;1.75;;;11.80;99.90;;;;;;5000844;28;20053;-60
2023/03/13 02:57:28;;;;;;;14.25;2.22;;;11.70;99.90;;;;;;5012974;28;20123;-59
2023/03/13 02:59:55;;;;;;;9.38;2.10;;;11.70;99.90;;;;;;5017466;28;20061;-60
2023/03/13 03:02:21;;;;;;;5.97;1.70;;;11.70;99.90;;;;;;5007373;28;20068;-60
2023/03/13 03:04:48;;;;;;;15.10;2.65;;;11.80;99.90;;;;;;5000186;28;20058;-60
2023/03/13 03:07:15;;;;;;;10.63;2.83;;;11.70;99.90;;;;;;5015656;28;20407;-60
2023/03/13 03:09:42;;;;;;;11.65;2.10;;;11.80;99.90;;;;;;5018264;28;20061;-59
2023/03/13 03:12:09;;;;;;;11.32;2.47;;;11.80;99.90;;;;;;5006043;28;20072;-59
2023/03/13 03:14:35;;;;;;;14.20;3.15;;;11.80;99.90;;;;;;5017424;28;20053;-61
2023/03/13 03:17:02;;;;;;;6.03;1.75;;;11.80;99.90;;;;;;5007281;28;20077;-60
2023/03/13 03:19:29;;;;;;;11.65;2.22;;;11.80;99.90;;;;;;4997778;28;20084;-62
2023/03/13 03:21:55;;;;;;;6.32;1.60;;;11.80;99.90;;;;;;5012679;28;20049;-61
2023/03/13 03:24:22;;;;;;;6.50;2.22;;;11.80;99.90;;;;;;5017861;28;20045;-60
2023/03/13 03:26:49;;;;;;;9.98;2.13;;;11.70;99.90;;;;;;5012464;28;20056;-61
2023/03/13 03:29:16;;;;;;;14.50;1.83;;;11.80;99.90;;;;;;5009959;28;20042;-60
2023/03/13 03:31:42;;;;;;;6.20;1.70;;;11.70;99.90;;;;;;5014231;28;20053;-61
2023/03/13 03:34:09;;;;;;;3.75;1.40;;;11.70;99.90;;;;;;5008291;28;20121;-60
2023/03/13 03:36:36;;;;;;;5.55;1.40;;;11.60;99.90;;;;;;5017279;28;20045;-60
2023/03/13 03:39:04;;;;;;;4.75;1.42;;;11.60;99.90;;;;;;5014989;28;20046;-61
2023/03/13 03:41:30;;;;;;;6.95;1.45;;;11.60;99.90;;;;;;5016626;28;20556;-61
2023/03/13 03:43:57;;;;;;;6.00;1.30;;;11.70;99.90;;;;;;5007203;28;20049;-62
2023/03/13 03:46:24;;;;;;;3.50;1.23;;;11.60;99.90;;;;;;5016940;28;20056;-61
2023/03/13 03:48:51;;;;;;;3.35;0.90;;;11.60;99.90;;;;;;5001033;28;20080;-61
2023/03/13 03:51:17;;;;;;;3.08;0.90;;;11.60;99.90;;;;;;5012882;28;20504;-61
2023/03/13 03:53:44;;;;;;;1.33;0.60;;;11.60;99.90;;;;;;5024253;28;20045;-61
2023/03/13 03:56:11;;;;;;;1.25;0.80;;;11.60;99.90;;;;;;5015596;28;20512;-60
2023/03/13 03:58:37;;;;;;;4.80;1.38;;;11.60;99.90;;;;;;5012672;28;20484;-60
2023/03/13 04:01:04;;;;;;;3.50;0.60;;;11.60;99.90;;;;;;5023095;28;20253;-62
2023/03/13 04:03:31;;;;;;;4.30;0.80;;;11.60;99.90;;;;;;5013976;28;20042;-60
2023/03/13 04:05:58;;;;;;;3.80;0.80;;;11.60;99.90;;;;;;5009877;28;20077;-61
2023/03/13 04:08:25;;;;;;;1.45;0.50;;;11.60;99.90;;;;;;5032262;28;20045;-60
2023/03/13 04:10:51;;;;;;;2.55;1.55;;;11.60;99.90;;;;;;5025181;28;20421;-59
2023/03/13 04:13:18;;;;;;;2.35;0.77;;;11.60;99.90;;;;;;5025072;28;20108;-60
2023/03/13 04:15:45;;;;;;;4.68;1.17;;;11.60;99.90;;;;;;5027166;28;20075;-59
2023/03/13 04:18:12;;;;;;;5.22;1.00;;;11.70;99.90;;;;;;5022776;28;20047;-60
2023/03/13 04:20:38;;;;;;;8.05;1.90;;;11.70;99.90;;;;;;5029205;28;20081;-60
2023/03/13 04:23:05;;;;;;;4.88;1.45;;;11.80;99.90;;;;;;5020345;28;20507;-59
2023/03/13 04:25:32;;;;;;;6.78;1.40;;;11.80;99.90;;;;;;5027021;28;20046;-59
2023/03/13 04:27:58;;;;;;;7.20;1.50;;;11.80;99.90;;;;;;5022624;28;20087;-60
2023/03/13 04:30:25;;;;;;;11.30;1.10;;;11.90;99.90;;;;;;5013146;28;20046;-60
2023/03/13 04:32:52;;;;;;;4.90;1.20;;;11.90;99.90;;;;;;5019232;28;20041;-61
2023/03/13 04:35:19;;;;;;;10.75;1.60;;;11.90;99.90;;;;;;5029676;28;20060;-59
2023/03/13 04:37:46;;;;;;;9.07;2.35;;;11.90;99.90;;;;;;5019137;28;20080;-60
2023/03/13 04:40:13;;;;;;;7.63;2.00;;;11.90;99.90;;;;;;5013792;28;20054;-60
2023/03/13 04:42:40;;;;;;;9.85;1.75;;;11.90;99.90;;;;;;5018262;28;20056;-60
2023/03/13 04:45:10;;;;;;;10.60;1.83;;;11.90;99.90;;;;;;5030596;28;20183;-60
2023/03/13 04:47:36;;;;;;;3.70;1.20;;;11.80;99.90;;;;;;5002091;28;20046;-60
2023/03/13 04:50:04;;;;;;;6.32;1.10;;;11.70;99.90;;;;;;5011851;28;20056;-60
2023/03/13 04:52:30;;;;;;;5.55;1.27;;;11.70;99.90;;;;;;5021830;28;20042;-61
2023/03/13 04:54:57;;;;;;;9.00;1.73;;;11.70;99.90;;;;;;5009006;28;20413;-60
2023/03/13 04:57:24;;;;;;;9.82;1.55;;;11.70;99.90;;;;;;5023778;28;20048;-60
2023/03/13 04:59:50;;;;;;;5.60;1.60;;;11.70;99.90;;;;;;5024325;28;20152;-60
2023/03/13 05:02:17;;;;;;;4.15;1.35;;;11.80;99.90;;;;;;5008552;28;20409;-60
2023/03/13 05:04:44;;;;;;;17.33;1.70;;;11.80;99.90;;;;;;5021758;28;20050;-61
2023/03/13 05:07:11;;;;;;;14.43;2.65;;;11.80;99.90;;;;;;5028168;28;20055;-60
2023/03/13 05:09:37;;;;;;;13.52;2.47;;;11.80;99.90;;;;;;5019564;28;20052;-60
2023/03/13 05:12:04;;;;;;;8.70;1.70;;;11.80;99.90;;;;;;5027927;28;20591;-60
2023/03/13 05:14:31;;;;;;;11.18;1.88;;;11.70;99.90;;;;;;5002384;28;20116;-61
2023/03/13 05:16:57;;;;;;;10.48;2.03;;;11.70;99.90;;;;;;5029154;28;20047;-62
2023/03/13 05:19:24;;;;;;;13.27;2.83;;;11.70;99.90;;;;;;5018522;28;20511;-60
2023/03/13 05:21:51;;;;;;;11.68;2.65;;;11.70;99.90;;;;;;5029574;28;20065;-60
2023/03/13 05:24:18;;;;;;;12.05;3.03;;;11.70;99.90;;;;;;5017835;28;20049;-60
2023/03/13 05:26:44;;;;;;;16.60;2.97;;;11.80;99.90;;;;;;5030544;28;20106;-61
2023/03/13 05:29:11;;;;;;;9.00;2.42;;;11.80;99.90;;;;;;5027497;28;20052;-61
2023/03/13 05:31:38;;;;;;;19.80;2.60;;;11.90;99.90;;;;;;5011843;28;20046;-60
2023/03/13 05:34:05;;;;;;;8.70;3.20;;;11.90;99.90;;;;;;5020972;28;20069;-60
2023/03/13 05:36:31;;;;;;;14.57;3.22;;;11.90;99.90;;;;;;5013915;28;20065;-61
2023/03/13 05:38:58;;;;;;;16.77;3.42;;;11.90;99.90;;;;;;5018868;28;20053;-60
2023/03/13 05:41:25;;;;;;;16.40;3.25;;;11.90;99.90;;;;;;5015790;28;20069;-60
2023/03/13 05:43:51;;;;;;;12.05;2.67;;;12.00;99.90;;;;;;5015949;28;20051;-61
2023/03/13 05:46:18;;;;;;;20.15;3.50;;;12.00;99.90;;;;;;5000327;28;20054;-60
2023/03/13 05:48:45;;;;;;;22.30;3.20;;;12.00;99.90;;;;;;5013628;28;20061;-60
2023/03/13 05:51:12;;;;;;;18.42;3.80;;;12.00;99.90;;;;;;5020366;28;20061;-60
2023/03/13 05:53:39;;;;;;;22.93;3.47;;;12.00;99.90;;;;;;4666909;28;10000438;-61
2023/03/13 05:56:06;;;;;;;21.02;3.67;;;11.90;99.90;;;;;;5015405;28;20099;-60
2023/03/13 05:58:32;;;;;;;19.15;5.00;;;11.90;99.90;;;;;;5009507;28;20475;-60
2023/03/13 06:01:04;;;;;;;14.02;3.00;;;11.90;99.90;;;;;;5019174;28;20046;-60
2023/03/13 06:03:31;;;;;;;15.70;3.45;;;11.90;99.90;;;;;;5007928;28;20038;-60
2023/03/13 06:05:58;;;;;;;22.63;4.38;;;11.80;99.90;;;;;;5019253;28;20050;-61
2023/03/13 06:08:25;;;;;;;22.70;4.15;;;11.80;99.90;;;;;;5016903;28;20054;-62
2023/03/13 06:10:51;;;;;;;25.70;4.55;;;11.70;99.90;;;;;;5015668;28;20084;-59
2023/03/13 06:13:18;;;;;;;37.78;5.93;;;11.70;99.90;;;;;;5027860;28;20522;-60
2023/03/13 06:15:56;;;;;;;16.73;3.20;;;11.70;99.90;;;;;;5014926;28;20053;-60
2023/03/13 06:18:23;;;;;;;17.77;3.83;;;11.70;99.90;;;;;;5008393;28;20054;-60
2023/03/13 06:20:52;;;;;;;16.48;3.92;;;11.70;99.90;;;;;;5019377;28;20057;-59
2023/03/13 06:23:19;;;;;;;23.10;3.25;;;11.70;99.90;;;;;;4976026;28;20050;-60
2023/03/13 06:25:47;;;;;;;12.55;2.45;;;11.80;99.90;;;;;;5016900;28;20056;-60
2023/03/13 06:28:14;;;;;;;16.77;4.90;;;11.80;99.90;;;;;;5012180;28;20108;-60
2023/03/13 06:30:41;;;;;;;19.58;3.92;;;11.90;99.90;;;;;;5017708;28;20049;-60
2023/03/13 06:33:08;;;;;;;24.27;3.25;;;11.90;99.90;;;;;;5014493;28;20568;-60
2023/03/13 06:35:35;;;;;;;24.45;4.40;;;11.90;99.90;;;;;;5014919;28;20084;-60
2023/03/13 06:38:20;;;;;;;11.88;2.97;;;11.90;99.90;;;;;;4999923;28;20057;-59
2023/03/13 06:40:47;;;;;;;19.80;4.28;;;11.90;99.90;;;;;;5015605;28;20076;-60
2023/03/13 06:43:14;;;;;;;26.75;5.25;;;12.00;99.90;;;;;;5016765;28;20045;-60
2023/03/13 06:45:40;;;;;;;25.30;4.55;;;12.10;99.90;;;;;;5012872;28;20461;-60
2023/03/13 06:48:07;;;;;;;24.95;4.85;;;12.10;99.90;;;;;;5018609;28;20584;-59
2023/03/13 06:50:37;;;;;;;26.88;5.32;;;12.00;99.90;;;;;;5011909;28;20564;-60
2023/03/13 06:53:04;;;;;;;24.00;5.38;;;12.10;99.90;;;;;;5003053;28;20056;-60
2023/03/13 06:55:31;;;;;;;22.17;5.07;;;12.10;99.90;;;;;;5022978;28;20049;-60
2023/03/13 06:57:57;;;;;;;34.50;6.30;;;12.10;99.90;;;;;;5015351;28;20141;-59
2023/03/13 07:00:24;;;;;;;34.63;7.35;;;12.00;99.90;;;;;;5010093;28;20056;-59
2023/03/13 07:02:51;;;;;;;33.42;6.72;;;12.00;99.90;;;;;;5020663;28;20065;-60
2023/03/13 07:05:18;;;;;;;36.10;5.82;;;12.10;99.90;;;;;;5009244;28;20069;-60
2023/03/13 07:07:45;;;;;;;25.15;5.70;;;12.10;99.90;;;;;;5020740;28;20088;-61
2023/03/13 07:10:11;;;;;;;30.00;6.15;;;12.10;99.90;;;;;;5018271;28;20288;-60
2023/03/13 07:12:38;;;;;;;28.60;5.85;;;12.20;99.90;;;;;;5021406;28;20041;-60
2023/03/13 07:15:05;;;;;;;41.97;6.85;;;12.10;99.90;;;;;;5009000;28;20077;-60
2023/03/13 07:17:32;;;;;;;32.88;8.00;;;12.10;99.90;;;;;;5018521;28;20041;-61
2023/03/13 07:19:59;;;;;;;34.28;6.10;;;12.10;99.90;;;;;;4994164;28;20050;-60
2023/03/13 07:22:26;;;;;;;29.67;7.10;;;12.10;99.90;;;;;;4999167;28;20065;-60
2023/03/13 07:24:52;;;;;;;39.83;7.72;;;12.20;99.90;;;;;;5013623;28;20132;-61
2023/03/13 07:27:22;;;;;;;31.85;6.38;;;12.20;99.90;;;;;;5014069;28;20076;-60
2023/03/13 07:29:49;;;;;;;39.00;7.25;;;12.20;99.90;;;;;;5009388;28;20045;-60
2023/03/13 07:32:15;;;;;;;25.70;6.70;;;12.30;99.90;;;;;;5013754;28;20080;-61
2023/03/13 07:34:45;;;;;;;41.45;7.50;;;12.30;99.90;;;;;;5016962;28;20050;-62
2023/03/13 07:37:13;;;;;;;31.65;6.43;;;12.30;99.90;;;;;;5009454;28;20073;-62
2023/03/13 07:39:40;;;;;;;33.40;6.22;;;12.30;99.90;;;;;;5020176;28;20050;-61
2023/03/13 07:42:08;;;;;;;37.30;6.80;;;12.30;99.90;;;;;;5022367;28;20057;-60
2023/03/13 07:44:35;;;;;;;27.25;6.07;;;12.30;99.90;;;;;;5001144;28;20065;-60
2023/03/13 07:47:01;;;;;;;37.08;6.95;;;12.30;99.90;;;;;;5008604;28;20050;-60
2023/03/13 07:49:28;;;;;;;37.85;7.53;;;12.30;99.90;;;;;;5013398;28;20456;-59
2023/03/13 07:51:56;;;;;;;34.83;7.60;;;12.30;99.90;;;;;;5025557;28;20061;-61
2023/03/13 07:54:23;;;;;;;41.42;6.70;;;12.40;99.90;;;;;;5013521;28;20076;-60
2023/03/13 07:56:50;;;;;;;35.85;7.75;;;12.40;99.90;;;;;;5025912;28;20053;-61
2023/03/13 07:59:17;;;;;;;43.75;6.72;;;12.40;99.90;;;;;;5012563;28;20526;-61
2023/03/13 08:01:44;;;;;;;47.35;10.35;;;12.40;99.90;;;;;;5003882;28;20060;-61
2023/03/13 08:04:12;;;;;;;36.95;7.43;;;12.40;99.90;;;;;;5011841;28;20100;-60
2023/03/13 08:06:40;;;;;;;36.58;7.30;;;12.40;99.90;;;;;;5004420;28;20132;-60
2023/03/13 08:09:07;;;;;;;43.47;8.02;;;12.30;99.90;;;;;;5016162;28;20120;-60
2023/03/13 08:11:34;;;;;;;34.95;6.43;;;12.40;99.90;;;;;;5021739;28;20149;-60
2023/03/13 08:14:01;;;;;;;29.05;7.28;;;12.40;99.90;;;;;;5018156;28;20042;-61
2023/03/13 08:16:32;;;;;;;45.15;8.57;;;12.30;99.90;;;;;;5020255;28;20052;-61
2023/03/13 08:19:02;;;;;;;35.30;6.68;;;12.40;99.90;;;;;;5020601;28;20073;-61
2023/03/13 08:21:30;;;;;;;44.40;9.25;;;12.40;99.90;;;;;;5019184;28;20060;-61
2023/03/13 08:23:59;;;;;;;46.05;7.30;;;12.30;99.90;;;;;;5022400;28;20057;-60
2023/03/13 08:26:29;;;;;;;34.13;7.00;;;12.40;99.90;;;;;;5016189;28;20050;-61
2023/03/13 08:28:59;;;;;;;39.78;7.13;;;12.30;99.90;;;;;;5005565;28;20141;-60
2023/03/13 08:31:28;;;;;;;40.38;6.47;;;12.40;99.90;;;;;;4999234;28;20089;-62
2023/03/13 08:33:55;;;;;;;48.83;8.80;;;12.40;99.90;;;;;;5023892;28;20061;-60
2023/03/13 08:36:24;;;;;;;45.67;8.35;;;12.40;99.90;;;;;;5016696;28;20129;-60
2023/03/13 08:38:52;;;;;;;42.30;7.57;;;12.40;99.90;;;;;;5024449;28;20055;-61
2023/03/13 08:41:21;;;;;;;27.65;6.20;;;12.50;99.90;;;;;;5018687;28;20046;-60
2023/03/13 08:43:48;;;;;;;36.30;7.28;;;12.40;99.90;;;;;;4992912;28;20528;-60
2023/03/13 08:46:15;;;;;;;36.13;8.57;;;12.40;99.90;;;;;;4999307;28;20523;-60
2023/03/13 08:48:49;;;;;;;40.28;6.75;;;12.50;99.90;;;;;;5029183;28;20064;-60
2023/03/13 08:51:16;;;;;;;32.33;7.10;;;12.60;99.90;;;;;;4999727;28;20307;-63
2023/03/13 08:53:43;;;;;;;45.85;7.88;;;12.60;99.90;;;;;;5012509;28;20053;-60
2023/03/13 08:56:11;;;;;;;32.83;5.90;;;12.60;99.90;;;;;;4983792;28;20049;-60
2023/03/13 08:58:38;;;;;;;36.40;8.68;;;12.60;99.90;;;;;;5013033;28;20599;-62
2023/03/13 09:01:10;;;;;;;40.58;7.88;;;12.60;99.90;;;;;;5018667;28;20050;-62
2023/03/13 09:03:37;;;;;;;45.55;7.25;;;12.60;99.90;;;;;;5011017;28;20482;-61
2023/03/13 09:06:04;;;;;;;37.92;8.15;;;12.50;99.90;;;;;;5002008;28;20053;-59
2023/03/13 09:08:31;;;;;;;44.88;8.90;;;12.50;99.90;;;;;;5009205;28;20530;-60
2023/03/13 09:11:02;;;;;;;39.85;7.22;;;12.50;99.90;;;;;;5004471;28;20078;-60
2023/03/13 09:13:29;;;;;;;44.67;7.43;;;12.50;99.90;;;;;;5024407;28;20053;-61
2023/03/13 09:16:05;;;;;;;43.08;7.72;;;12.50;99.90;;;;;;5023917;28;20145;-61
2023/03/13 09:18:34;;;;;;;49.08;8.00;;;12.50;99.90;;;;;;5023579;28;20053;-61
2023/03/13 09:21:01;;;;;;;41.72;7.15;;;12.50;99.90;;;;;;5023925;28;20099;-60
2023/03/13 09:23:28;;;;;;;46.33;8.35;;;12.60;99.90;;;;;;5021351;28;20053;-61
2023/03/13 09:25:56;;;;;;;48.75;8.40;;;12.60;99.90;;;;;;5026399;28;20053;-60
2023/03/13 09:28:23;;;;;;;51.30;11.48;;;12.60;99.90;;;;;;5001882;28;20042;-60
2023/03/13 09:30:50;;;;;;;38.85;7.93;;;12.70;99.90;;;;;;5028747;28;20046;-62
2023/03/13 09:33:17;;;;;;;46.42;8.38;;;12.70;99.90;;;;;;5018753;28;20053;-61
2023/03/13 09:35:49;;;;;;;44.28;8.23;;;12.70;99.90;;;;;;5009662;28;20133;-61
2023/03/13 09:38:17;;;;;;;47.03;7.47;;;12.80;99.90;;;;;;5021331;28;20038;-61
2023/03/13 09:40:46;;;;;;;35.97;7.13;;;12.70;99.90;;;;;;4994049;28;20050;-61
2023/03/13 09:43:51;;;;;;;32.88;7.22;;;12.80;99.90;;;;;;5016152;28;20049;-60
2023/03/13 09:46:31;;;;;;;39.67;8.43;;;12.80;99.90;;;;;;5026277;28;20187;-60
2023/03/13 09:49:00;;;;;;;52.83;6.80;;;12.80;99.90;;;;;;5000231;28;20053;-61
2023/03/13 09:51:29;;;;;;;41.35;8.35;;;12.80;99.90;;;;;;5008702;28;20084;-62
2023/03/13 09:54:01;;;;;;;40.63;8.52;;;12.90;99.90;;;;;;5017910;28;20049;-60
2023/03/13 09:56:38;;;;;;;46.67;8.48;;;12.90;99.90;;;;;;5009135;28;20049;-61
2023/03/13 09:59:18;;;;;;;38.50;7.82;;;12.90;99.90;;;;;;5006096;28;20133;-60
2023/03/13 10:01:45;;;;;;;47.78;7.90;;;12.90;99.90;;;;;;4994427;28;20149;-60
2023/03/13 10:04:26;;;;;;;40.50;7.07;;;13.00;99.90;;;;;;5009260;28;20046;-68
2023/03/13 10:06:53;;;;;;;51.90;10.93;;;13.00;99.90;;;;;;5011890;28;20526;-60
2023/03/13 10:09:23;;;;;;;43.92;6.55;;;13.00;99.90;;;;;;5011851;28;20057;-61
2023/03/13 10:12:03;;;;;;;40.30;8.68;;;13.00;99.90;;;;;;5012329;28;20055;-59
2023/03/13 10:14:43;;;;;;;35.15;10.10;;;13.10;99.90;;;;;;5011811;28;20045;-64
2023/03/13 10:17:19;;;;;;;42.78;7.93;;;13.10;99.90;;;;;;5013818;28;20049;-60
2023/03/13 10:19:47;;;;;;;41.80;7.18;;;13.10;99.90;;;;;;5011007;28;20121;-61
2023/03/13 10:22:18;;;;;;;40.38;8.60;;;13.10;99.90;;;;;;5010646;28;20136;-59
2023/03/13 10:24:55;;;;;;;36.80;6.18;;;13.10;99.90;;;;;;5011017;28;20053;-60
2023/03/13 10:27:22;;;;;;;47.45;8.52;;;13.10;99.90;;;;;;5027581;28;20133;-62
2023/03/13 10:29:49;;;;;;;46.42;7.93;;;13.10;99.90;;;;;;4993749;28;20099;-60
2023/03/13 10:32:16;;;;;;;48.22;8.55;;;13.10;99.90;;;;;;5010260;28;20046;-61
2023/03/13 10:35:02;;;;;;;44.00;9.18;;;13.10;99.90;;;;;;5027550;28;20046;-60
2023/03/13 10:37:30;;;;;;;44.33;7.40;;;13.20;99.90;;;;;;5010323;28;20053;-61
2023/03/13 10:40:11;;;;;;;51.63;7.80;;;13.20;99.90;;;;;;5027557;28;20665;-61
2023/03/13 10:42:42;;;;;;;43.90;7.63;;;13.20;99.90;;;;;;5027963;28;20136;-62
2023/03/13 10:45:16;;;;;;;41.65;7.75;;;13.20;99.90;;;;;;5011252;28;20059;-61
2023/03/13 10:47:43;;;;;;;34.90;7.15;;;13.20;99.90;;;;;;5028688;28;20050;-60
2023/03/13 10:50:17;;;;;;;34.97;6.72;;;13.30;99.90;;;;;;5029025;28;20389;-60
2023/03/13 10:52:46;;;;;;;40.47;8.77;;;13.30;99.90;;;;;;5029056;28;20057;-60
2023/03/13 10:55:21;;;;;;;30.63;6.40;;;13.30;99.90;;;;;;5029090;28;20091;-60
2023/03/13 10:58:08;;;;;;;41.13;7.50;;;13.30;99.90;;;;;;5028950;28;20050;-59
2023/03/13 11:00:38;;;;;;;52.15;8.85;;;13.40;99.90;;;;;;5011210;28;20077;-60
2023/03/13 11:03:13;;;;;;;52.90;7.80;;;13.40;99.90;;;;;;5010990;28;20064;-60
2023/03/13 11:05:42;;;;;;;45.35;8.18;;;13.50;99.90;;;;;;5010965;28;20056;-60
2023/03/13 11:08:18;;;;;;;41.35;10.68;;;13.50;99.90;;;;;;5028714;28;20045;-60
2023/03/13 11:11:00;;;;;;;43.65;7.47;;;13.50;99.90;;;;;;5011025;28;20054;-60
2023/03/13 11:13:47;;;;;;;34.08;6.93;;;13.50;99.90;;;;;;5028756;28;20150;-59
2023/03/13 11:16:19;;;;;;;41.88;6.95;;;13.50;99.90;;;;;;5028644;28;20435;-59
2023/03/13 11:18:52;;;;;;;39.97;7.93;;;13.50;99.90;;;;;;5028559;28;20103;-60
2023/03/13 11:21:44;;;;;;;39.72;7.38;;;13.50;99.90;;;;;;5010691;28;20503;-61
2023/03/13 11:24:46;;;;;;;53.08;7.20;;;13.50;99.90;;;;;;5011078;28;20115;-60
2023/03/13 11:27:37;;;;;;;40.55;7.60;;;13.50;99.90;;;;;;5028284;28;20126;-61
2023/03/13 11:30:24;;;;;;;37.83;6.88;;;13.60;99.90;;;;;;5012661;28;20056;-61
2023/03/13 11:32:59;;;;;;;36.15;8.55;;;13.60;99.90;;;;;;4997420;28;20056;-61
2023/03/13 11:35:52;;;;;;;36.45;8.23;;;13.70;99.90;;;;;;5011867;28;20076;-61
2023/03/13 11:38:31;;;;;;;51.45;8.82;;;13.70;99.90;;;;;;5004765;28;20056;-61
2023/03/13 11:41:29;;;;;;;32.63;6.75;;;13.80;99.90;;;;;;5028613;28;20325;-61
2023/03/13 11:44:08;;;;;;;42.85;7.05;;;13.80;99.90;;;;;;5023859;28;20049;-61
2023/03/13 11:47:06;;;;;;;37.75;7.72;;;13.90;99.90;;;;;;5011846;28;20398;-61
2023/03/13 11:49:46;;;;;;;46.60;7.38;;;13.90;99.90;;;;;;4991405;28;20081;-61
2023/03/13 11:52:46;;;;;;;32.83;6.82;;;13.90;99.90;;;;;;5028321;28;20053;-59
2023/03/13 11:55:17;;;;;;;44.75;6.93;;;13.90;99.90;;;;;;5028346;28;20099;-60
2023/03/13 11:58:17;;;;;;;44.92;7.47;;;13.90;99.90;;;;;;5010524;28;20042;-60
2023/03/13 12:01:06;;;;;;;34.22;7.75;;;13.90;99.90;;;;;;5017446;28;20353;-61
2023/03/13 12:03:43;;;;;;;44.65;6.78;;;14.00;99.90;;;;;;4994177;28;20460;-60
2023/03/13 12:06:17;;;;;;;41.58;7.70;;;14.00;99.90;;;;;;5027941;28;20111;-60
2023/03/13 12:09:14;;;;;;;;;;;14.20;99.90;;;;;;5012722;28;20073;-60
2023/03/13 12:12:02;;;;;;;37.00;7.03;;;14.30;99.90;;;;;;5027843;28;19971;-60
2023/03/13 12:14:38;;;;;;;40.90;7.25;;;14.40;99.90;;;;;;5011346;28;20091;-60
2023/03/13 12:17:09;;;;;;;38.22;8.38;;;14.40;99.90;;;;;;5010413;28;20084;-60
2023/03/13 12:19:40;;;;;;;45.28;9.60;;;14.50;99.90;;;;;;5013602;28;20049;-59
2023/03/13 12:22:17;;;;;;;37.85;7.63;;;14.60;99.90;;;;;;5014762;28;20049;-60
2023/03/13 12:25:00;;;;;;;48.90;8.02;;;14.60;99.90;;;;;;5014132;28;20081;-60
2023/03/13 12:27:57;;;;;;;44.05;8.98;;;14.50;99.90;;;;;;5000377;28;20050;-60
2023/03/13 12:30:30;;;;;;;39.95;7.95;;;14.40;99.90;;;;;;5010126;28;20057;-59
2023/03/13 12:33:27;;;;;;;46.50;8.07;;;14.30;99.90;;;;;;5031424;28;20119;-60
2023/03/13 12:36:10;;;;;;;43.13;6.90;;;14.40;99.90;;;;;;5014082;28;20084;-60
2023/03/13 12:38:47;;;;;;;43.53;8.15;;;14.50;99.90;;;;;;5014133;28;20052;-59
2023/03/13 12:41:19;;;;;;;40.03;6.97;;;14.40;99.90;;;;;;4997747;28;20076;-59
2023/03/13 12:43:50;;;;;;;32.13;6.65;;;14.40;99.90;;;;;;5014083;28;20050;-62
2023/03/13 12:46:37;;;;;;;32.92;6.93;;;14.50;99.90;;;;;;5015775;28;20187;-61
2023/03/13 12:49:29;;;;;;;53.55;8.80;;;14.60;99.90;;;;;;5013949;28;20072;-60
2023/03/13 12:52:06;;;;;;;31.65;6.75;;;14.60;99.90;;;;;;5011623;28;20055;-59
2023/03/13 12:55:03;;;;;;;33.80;7.97;;;14.50;99.90;;;;;;4993816;28;20056;-59
2023/03/13 12:58:01;;;;;;;49.08;7.43;;;14.50;99.90;;;;;;5011522;28;20528;-60